Van Horn, Texas
Current Conditions -  °F | °C
As of 5:51 AM on Tuesday 21 Oct 2014 (Local Time) from KGDP Reporting Station
Light Rain Light Rain  
Wind Chill: 54°   Ceiling: 200
Heat Index: 54°   Visibility: 0.25mi
Dew Point: 54°   Wind: 20mph
Humidity: 100%   Direction: 40°NE
Pressure: 30.14"   Gusts: NA
Location:  31.04°N, 104.83°W
Report Text: KGDP 211051Z AUTO 04017KT 1/4SM -RA FG VV002 12/12 A3014 RMK AO2 RAB20 SLP158 P0000 T01220122 $
Loading
Personal Weather Stations






























Interactive Weather Map
Tropical Storm Tracking
New forecast layout! Learn more

10-Day Weather Forecast

Advertisements
Track Severe Weather on mobile